Time;durP1;ratioP1;P1;durP2;ratioP2;P2;SDS_P1;SDS_P2;PMS_P1;PMS_P2;Temp;Humidity;BMP_temperature;BMP_pressure;BME280_temperature;BME280_humidity;BME280_pressure;Samples;Min_cycle;Max_cycle;Signal;HPM_P1;HPM_P2
2021/06/19 00:02:07;;;;;;;9.70;7.57;;;20.50;93.90;;;;;;5016909;28;20037;-79
2021/06/19 00:04:33;;;;;;;7.90;7.20;;;20.50;94.40;;;;;;5017611;28;20023;-79
2021/06/19 00:07:00;;;;;;;8.95;7.13;;;20.50;94.30;;;;;;5021833;28;20037;-80
2021/06/19 00:09:26;;;;;;;9.93;6.97;;;20.60;94.50;;;;;;5023361;28;20038;-79
2021/06/19 00:11:52;;;;;;;7.85;7.15;;;20.60;94.50;;;;;;5008886;28;20108;-80
2021/06/19 00:14:18;;;;;;;7.45;6.50;;;20.60;94.50;;;;;;5019003;28;20483;-80
2021/06/19 00:16:44;;;;;;;7.43;6.57;;;20.70;94.60;;;;;;5017046;28;20026;-80
2021/06/19 00:19:10;;;;;;;7.57;6.88;;;20.70;95.30;;;;;;5027387;28;20253;-79
2021/06/19 00:21:36;;;;;;;7.65;6.85;;;20.70;95.30;;;;;;5026875;28;20467;-80
2021/06/19 00:24:02;;;;;;;7.80;6.95;;;20.60;95.40;;;;;;5031063;28;20049;-79
2021/06/19 00:26:28;;;;;;;7.60;6.75;;;20.50;95.70;;;;;;5021646;28;20034;-79
2021/06/19 00:28:54;;;;;;;7.75;7.05;;;20.50;95.90;;;;;;5018516;28;20395;-80
2021/06/19 00:31:19;;;;;;;8.48;6.30;;;20.50;95.80;;;;;;5022759;28;20042;-78
2021/06/19 00:33:45;;;;;;;8.45;6.30;;;20.60;95.70;;;;;;5019474;28;20674;-78
2021/06/19 00:36:11;;;;;;;7.43;6.72;;;20.60;95.70;;;;;;5011479;28;20215;-81
2021/06/19 00:38:36;;;;;;;6.57;5.97;;;20.60;95.60;;;;;;5019330;28;20037;-80
2021/06/19 00:41:02;;;;;;;7.20;6.55;;;20.60;95.50;;;;;;5018509;28;20443;-80
2021/06/19 00:43:28;;;;;;;7.15;6.45;;;20.60;95.70;;;;;;4991548;28;20033;-81
2021/06/19 00:45:53;;;;;;;7.68;6.97;;;20.50;96.00;;;;;;4999879;28;20061;-80
2021/06/19 00:53:36;;;;;;;7.70;6.95;;;20.30;97.30;;;;;;5015236;28;20112;-78
2021/06/19 00:56:02;;;;;;;9.00;6.50;;;20.30;97.30;;;;;;4993413;28;20042;-78
2021/06/19 00:58:31;;;;;;;7.18;6.45;;;20.30;97.40;;;;;;4977450;28;20770;-78
2021/06/19 01:00:57;;;;;;;9.00;7.25;;;20.20;97.60;;;;;;4994204;28;20045;-78
2021/06/19 01:03:25;;;;;;;8.70;7.47;;;20.10;97.70;;;;;;4997167;28;20030;-78
2021/06/19 01:05:51;;;;;;;7.68;6.82;;;20.10;97.90;;;;;;4988896;28;20052;-77
2021/06/19 01:08:17;;;;;;;11.00;6.95;;;20.10;98.10;;;;;;5024631;28;20030;-78
2021/06/19 01:10:43;;;;;;;8.10;7.30;;;20.10;98.30;;;;;;5002939;28;20041;-77
2021/06/19 01:13:08;;;;;;;8.77;7.88;;;20.00;99.10;;;;;;5014978;28;20125;-77
2021/06/19 01:15:34;;;;;;;7.40;6.70;;;20.00;99.10;;;;;;5013915;28;20061;-77
2021/06/19 01:18:00;;;;;;;9.45;7.85;;;20.00;99.90;;;;;;5013183;28;20555;-77
2021/06/19 01:20:26;;;;;;;8.48;7.28;;;19.90;99.40;;;;;;5013294;28;20094;-77
2021/06/19 01:22:54;;;;;;;8.32;7.53;;;19.90;99.50;;;;;;4999185;28;20109;-77
2021/06/19 01:25:25;;;;;;;10.98;8.48;;;19.90;99.90;;;;;;4976870;28;20042;-77
2021/06/19 01:27:53;;;;;;;10.18;8.10;;;19.80;99.90;;;;;;4991626;28;20073;-77
2021/06/19 01:30:22;;;;;;;9.80;8.05;;;19.80;99.90;;;;;;4993517;28;20034;-77
2021/06/19 01:32:48;;;;;;;9.05;8.15;;;19.70;99.90;;;;;;4995452;28;20112;-77
2021/06/19 01:35:14;;;;;;;8.90;8.00;;;19.60;99.90;;;;;;4995470;28;20034;-77
2021/06/19 01:37:45;;;;;;;9.60;8.45;;;19.50;99.90;;;;;;5001796;28;20392;-77
2021/06/19 01:40:16;;;;;;;8.73;7.82;;;19.50;99.90;;;;;;5012995;28;20041;-77
2021/06/19 01:42:44;;;;;;;10.05;7.78;;;19.40;99.90;;;;;;5012531;28;20510;-77
2021/06/19 01:45:21;;;;;;;8.63;7.82;;;19.40;99.90;;;;;;5013022;28;20022;-77
2021/06/19 01:47:48;;;;;;;8.20;7.40;;;19.40;99.90;;;;;;5009201;28;20093;-77
2021/06/19 01:50:22;;;;;;;9.45;7.95;;;19.50;99.90;;;;;;5001400;28;20034;-79
2021/06/19 01:52:49;;;;;;;8.30;7.60;;;19.50;99.90;;;;;;5013217;28;20030;-77
2021/06/19 01:55:16;;;;;;;8.70;7.85;;;19.50;99.90;;;;;;5011621;28;20025;-77
2021/06/19 01:57:42;;;;;;;8.98;8.05;;;19.50;99.90;;;;;;5008871;28;20042;-77
2021/06/19 02:00:18;;;;;;;8.75;7.85;;;19.50;99.90;;;;;;5010925;28;20072;-77
2021/06/19 02:02:44;;;;;;;9.10;8.00;;;19.50;99.90;;;;;;4996338;28;20195;-77
2021/06/19 02:05:12;;;;;;;10.25;8.70;;;19.60;99.90;;;;;;5001202;28;20025;-77
2021/06/19 02:08:05;;;;;;;9.48;7.95;;;19.60;99.90;;;;;;5012350;28;20117;-77
2021/06/19 02:10:33;;;;;;;9.25;8.07;;;19.70;99.90;;;;;;4985566;28;20049;-77
2021/06/19 02:13:00;;;;;;;9.70;8.70;;;19.70;99.90;;;;;;5013095;28;20076;-77
2021/06/19 02:15:26;;;;;;;9.65;8.63;;;19.70;99.90;;;;;;5000496;28;20041;-77
2021/06/19 02:17:54;;;;;;;9.68;8.68;;;19.70;99.90;;;;;;5008557;28;20515;-77
2021/06/19 02:20:21;;;;;;;10.68;8.55;;;19.60;99.90;;;;;;4989958;28;20048;-77
2021/06/19 02:22:47;;;;;;;9.95;8.95;;;19.60;99.90;;;;;;5024340;28;20030;-77
2021/06/19 02:25:15;;;;;;;9.05;8.02;;;19.60;99.90;;;;;;4998156;28;20481;-77
2021/06/19 02:27:56;;;;;;;10.35;7.70;;;19.60;99.90;;;;;;4992215;28;20100;-78
2021/06/19 02:30:28;;;;;;;9.27;8.23;;;19.70;99.90;;;;;;4992353;28;20038;-78
2021/06/19 02:32:55;;;;;;;9.00;8.10;;;19.70;99.90;;;;;;4992452;28;20030;-77
2021/06/19 02:35:22;;;;;;;9.05;7.82;;;19.70;99.90;;;;;;4972247;28;20034;-77
2021/06/19 02:37:47;;;;;;;9.20;8.30;;;19.70;99.90;;;;;;5011700;28;20400;-77
2021/06/19 02:40:14;;;;;;;9.25;8.23;;;19.70;99.90;;;;;;5007196;28;20022;-77
2021/06/19 02:42:40;;;;;;;9.85;8.30;;;19.60;99.90;;;;;;5005868;28;20040;-77
2021/06/19 02:45:11;;;;;;;8.88;7.97;;;19.60;99.90;;;;;;5025466;28;20068;-76
2021/06/19 02:47:49;;;;;;;7.95;7.15;;;19.50;99.90;;;;;;5013734;28;20084;-77
2021/06/19 02:50:16;;;;;;;8.50;7.60;;;19.50;99.90;;;;;;5023205;28;20491;-77
2021/06/19 02:52:43;;;;;;;7.93;7.13;;;19.50;99.90;;;;;;5013796;28;20450;-77
2021/06/19 02:55:21;;;;;;;9.80;7.47;;;19.60;99.90;;;;;;5010914;28;20061;-77
2021/06/19 02:57:47;;;;;;;7.25;6.55;;;19.60;99.90;;;;;;5020961;28;20116;-78
2021/06/19 03:00:16;;;;;;;7.93;7.13;;;19.60;99.90;;;;;;5023684;28;20033;-77
2021/06/19 03:02:42;;;;;;;10.25;7.25;;;19.50;99.90;;;;;;5011871;28;20047;-77
2021/06/19 03:05:10;;;;;;;8.85;7.70;;;19.40;99.90;;;;;;5021064;28;20034;-77
2021/06/19 03:07:36;;;;;;;9.27;7.22;;;19.40;99.90;;;;;;5010224;28;20083;-77
2021/06/19 03:10:04;;;;;;;7.80;7.05;;;19.40;99.90;;;;;;5006422;28;20470;-77
2021/06/19 03:12:30;;;;;;;9.50;8.32;;;19.30;99.90;;;;;;4996579;28;20033;-77
2021/06/19 03:14:55;;;;;;;8.32;7.53;;;19.20;99.90;;;;;;5016543;28;20537;-77
2021/06/19 03:17:22;;;;;;;8.27;7.47;;;19.20;99.90;;;;;;5026409;28;20041;-77
2021/06/19 03:19:48;;;;;;;8.70;7.53;;;19.20;99.90;;;;;;5031318;28;20120;-77
2021/06/19 03:22:14;;;;;;;8.90;8.00;;;19.20;99.90;;;;;;5014008;28;20056;-77
2021/06/19 03:24:40;;;;;;;8.63;7.72;;;19.20;99.90;;;;;;4992295;28;20473;-77
2021/06/19 03:27:10;;;;;;;8.77;7.50;;;19.20;99.90;;;;;;4973745;28;20027;-77
2021/06/19 03:29:37;;;;;;;8.15;7.32;;;19.20;99.90;;;;;;5000125;28;20037;-77
2021/06/19 03:32:03;;;;;;;9.52;8.50;;;19.20;99.90;;;;;;5017589;28;20021;-77
2021/06/19 03:34:29;;;;;;;9.00;8.10;;;19.10;99.90;;;;;;5011556;28;20038;-77
2021/06/19 03:36:59;;;;;;;9.40;8.23;;;19.10;99.90;;;;;;5010188;28;20034;-76
2021/06/19 03:39:29;;;;;;;9.27;8.23;;;19.20;99.90;;;;;;5007621;28;20042;-77
2021/06/19 03:41:55;;;;;;;9.55;8.55;;;19.20;99.90;;;;;;5010949;28;20034;-77
2021/06/19 03:44:22;;;;;;;10.13;8.55;;;19.10;99.90;;;;;;5001458;28;20052;-77
2021/06/19 03:46:48;;;;;;;9.25;8.35;;;19.10;99.90;;;;;;5010910;28;20114;-77
2021/06/19 03:49:14;;;;;;;8.73;7.85;;;19.10;99.90;;;;;;5013606;28;20682;-77
2021/06/19 03:51:40;;;;;;;9.95;8.50;;;19.10;99.90;;;;;;5011534;28;20091;-77
2021/06/19 03:54:05;;;;;;;9.27;8.38;;;19.10;99.90;;;;;;4992010;28;20037;-77
2021/06/19 03:56:32;;;;;;;8.77;7.90;;;19.10;99.90;;;;;;5002438;28;20076;-77
2021/06/19 03:58:58;;;;;;;8.80;8.00;;;19.20;99.90;;;;;;4992503;28;20463;-77
2021/06/19 04:01:23;;;;;;;7.82;7.03;;;19.30;99.90;;;;;;5010089;28;20100;-76
2021/06/19 04:03:49;;;;;;;8.88;7.93;;;19.40;99.90;;;;;;5011523;28;20024;-77
2021/06/19 04:06:15;;;;;;;8.32;7.43;;;19.50;99.90;;;;;;5010728;28;20026;-77
2021/06/19 04:08:40;;;;;;;12.18;8.15;;;19.50;99.90;;;;;;5018723;28;20038;-77
2021/06/19 04:11:06;;;;;;;10.55;9.45;;;19.40;99.90;;;;;;5010886;28;20030;-77
2021/06/19 04:13:32;;;;;;;10.75;9.32;;;19.30;99.90;;;;;;5012761;28;20030;-77
2021/06/19 04:15:57;;;;;;;11.20;9.65;;;19.30;99.90;;;;;;4993954;28;20034;-77
2021/06/19 04:18:23;;;;;;;10.15;8.63;;;19.20;99.90;;;;;;4991474;28;20038;-77
2021/06/19 04:20:49;;;;;;;10.25;9.25;;;19.20;99.90;;;;;;4977152;28;20026;-77
2021/06/19 04:23:14;;;;;;;12.25;8.65;;;19.30;99.90;;;;;;4993770;28;20037;-77
2021/06/19 04:25:40;;;;;;;10.68;8.70;;;19.50;99.90;;;;;;4986513;28;20037;-77
2021/06/19 04:28:06;;;;;;;9.82;8.82;;;19.60;99.90;;;;;;5011100;28;20030;-77
2021/06/19 04:30:32;;;;;;;9.40;8.50;;;19.70;99.90;;;;;;5003672;28;20049;-77
2021/06/19 04:32:58;;;;;;;9.18;8.27;;;19.90;99.90;;;;;;4991892;28;20030;-77
2021/06/19 04:35:25;;;;;;;8.80;7.68;;;20.00;99.90;;;;;;5011603;28;20037;-77
2021/06/19 04:37:51;;;;;;;8.20;7.38;;;20.20;99.90;;;;;;5010927;28;20149;-77
2021/06/19 04:40:43;;;;;;;10.63;9.20;;;20.30;99.90;;;;;;4996921;28;20026;-77
2021/06/19 04:43:11;;;;;;;12.73;11.38;;;20.40;99.90;;;;;;4995405;28;20034;-77
2021/06/19 04:45:37;;;;;;;11.95;10.13;;;20.30;99.90;;;;;;5019652;28;20034;-77
2021/06/19 04:48:05;;;;;;;8.40;7.60;;;20.40;99.90;;;;;;5026943;28;20058;-77
2021/06/19 04:50:32;;;;;;;8.90;7.90;;;20.50;99.90;;;;;;5003233;28;20132;-77
2021/06/19 04:53:00;;;;;;;9.27;7.95;;;20.70;99.90;;;;;;5009403;28;20104;-77
2021/06/19 04:55:26;;;;;;;9.10;8.18;;;20.80;99.90;;;;;;5014479;28;20423;-77
2021/06/19 04:57:57;;;;;;;9.20;8.30;;;20.90;99.90;;;;;;5024600;28;20091;-77
2021/06/19 05:00:27;;;;;;;10.05;9.05;;;20.80;99.90;;;;;;4993998;28;20065;-77
2021/06/19 05:02:54;;;;;;;11.82;9.75;;;20.90;99.90;;;;;;4994612;28;20080;-77
2021/06/19 05:05:21;;;;;;;10.90;9.60;;;20.80;99.90;;;;;;4994544;28;20117;-77
2021/06/19 05:07:46;;;;;;;10.50;9.32;;;20.80;99.90;;;;;;4994141;28;20045;-78
2021/06/19 05:10:13;;;;;;;11.02;9.80;;;20.80;99.90;;;;;;4994132;28;20030;-77
2021/06/19 05:12:43;;;;;;;11.25;10.05;;;20.80;99.90;;;;;;4996462;28;20066;-77
2021/06/19 05:15:10;;;;;;;12.73;9.63;;;20.80;99.90;;;;;;5018382;28;20109;-77
2021/06/19 05:17:37;;;;;;;10.80;9.70;;;20.80;99.90;;;;;;5016189;28;20040;-77
2021/06/19 05:20:04;;;;;;;10.05;9.05;;;20.80;99.90;;;;;;5020333;28;20384;-77
2021/06/19 05:22:30;;;;;;;10.02;9.02;;;20.80;99.90;;;;;;5030040;28;20033;-77
2021/06/19 05:24:55;;;;;;;10.30;9.00;;;21.00;99.90;;;;;;5033898;28;20021;-77
2021/06/19 05:27:21;;;;;;;11.25;9.25;;;21.10;99.90;;;;;;5009106;28;20044;-77
2021/06/19 05:29:47;;;;;;;11.60;10.40;;;21.40;99.90;;;;;;4998629;28;20485;-78
2021/06/19 05:32:13;;;;;;;10.93;9.70;;;21.50;99.90;;;;;;4994222;28;20039;-77
2021/06/19 05:34:41;;;;;;;9.80;8.80;;;21.90;99.90;;;;;;4994425;28;20065;-78
2021/06/19 05:37:08;;;;;;;11.45;9.40;;;22.50;99.90;;;;;;4995918;28;20735;-77
2021/06/19 05:39:33;;;;;;;10.65;9.18;;;23.10;99.90;;;;;;4995920;28;20213;-78
2021/06/19 05:41:59;;;;;;;11.05;8.93;;;23.70;99.90;;;;;;5004026;28;20464;-77
2021/06/19 05:44:25;;;;;;;9.98;8.98;;;24.30;99.90;;;;;;4994077;28;20050;-78
2021/06/19 05:46:50;;;;;;;9.98;8.98;;;24.30;99.90;;;;;;5008472;28;20034;-78
2021/06/19 05:49:16;;;;;;;12.15;9.65;;;24.20;99.90;;;;;;5010542;28;20033;-77
2021/06/19 05:51:42;;;;;;;11.38;9.90;;;24.20;99.90;;;;;;4999475;28;20542;-77
2021/06/19 05:54:08;;;;;;;10.23;9.23;;;24.20;99.90;;;;;;5012924;28;20038;-77
2021/06/19 05:56:33;;;;;;;10.55;9.45;;;23.90;99.90;;;;;;5017927;28;20121;-77
2021/06/19 05:59:00;;;;;;;10.38;9.30;;;23.90;99.90;;;;;;5032479;28;20595;-78
2021/06/19 06:01:26;;;;;;;10.27;9.23;;;23.80;99.90;;;;;;5018898;28;20035;-77
2021/06/19 06:03:51;;;;;;;10.13;9.23;;;23.90;99.90;;;;;;4994092;28;20033;-78
2021/06/19 06:06:17;;;;;;;8.77;7.97;;;24.30;99.90;;;;;;5017384;28;20502;-78
2021/06/19 06:08:44;;;;;;;9.65;8.65;;;25.00;99.90;;;;;;5006592;28;20481;-78
2021/06/19 06:11:10;;;;;;;10.98;9.70;;;25.70;99.90;;;;;;4993325;28;20081;-78
2021/06/19 06:13:36;;;;;;;9.57;8.68;;;26.30;96.50;;;;;;4998192;28;20034;-78
2021/06/19 06:16:02;;;;;;;8.95;8.13;;;26.60;94.50;;;;;;5012653;28;20041;-78
2021/06/19 06:18:27;;;;;;;9.52;8.60;;;26.70;94.80;;;;;;5008272;28;20299;-78
2021/06/19 06:20:54;;;;;;;9.55;8.60;;;26.70;94.80;;;;;;4996184;28;20041;-78
2021/06/19 06:23:23;;;;;;;9.65;8.75;;;26.60;94.90;;;;;;5012092;28;20045;-78
2021/06/19 06:25:52;;;;;;;9.63;8.75;;;26.40;95.80;;;;;;5012649;28;20042;-78
2021/06/19 06:28:18;;;;;;;8.73;7.88;;;26.20;96.10;;;;;;5010393;28;20037;-78
2021/06/19 06:30:45;;;;;;;9.45;8.45;;;26.00;96.50;;;;;;4996204;28;20033;-78
2021/06/19 06:33:10;;;;;;;9.25;7.82;;;25.90;96.90;;;;;;5013377;28;20025;-78
2021/06/19 06:35:36;;;;;;;9.30;8.40;;;25.80;97.10;;;;;;4995296;28;20503;-78
2021/06/19 06:38:02;;;;;;;9.10;8.20;;;25.90;97.40;;;;;;4996189;28;20033;-78
2021/06/19 06:40:28;;;;;;;10.38;8.85;;;26.00;97.60;;;;;;4985483;28;20485;-78
2021/06/19 06:42:54;;;;;;;9.48;8.20;;;26.00;96.20;;;;;;5005343;28;20026;-79
2021/06/19 06:45:20;;;;;;;7.95;7.18;;;26.00;95.70;;;;;;4999247;28;20022;-79
2021/06/19 06:47:46;;;;;;;8.70;7.90;;;26.00;95.60;;;;;;5013371;28;20069;-78
2021/06/19 06:50:12;;;;;;;8.38;7.57;;;26.30;96.80;;;;;;4980483;28;20397;-80
2021/06/19 06:52:38;;;;;;;9.48;8.57;;;26.70;96.30;;;;;;5007026;28;20037;-78
2021/06/19 06:55:05;;;;;;;9.27;8.38;;;27.20;95.10;;;;;;5010480;28;20021;-78
2021/06/19 06:57:30;;;;;;;8.23;7.35;;;27.80;95.20;;;;;;5016045;28;20025;-81
2021/06/19 06:59:56;;;;;;;8.50;7.55;;;28.60;92.20;;;;;;4993130;28;20091;-80
2021/06/19 07:02:22;;;;;;;8.65;7.75;;;29.30;91.20;;;;;;5013027;28;20100;-82
2021/06/19 07:04:49;;;;;;;7.85;7.15;;;29.60;88.80;;;;;;5012208;28;20503;-82
2021/06/19 07:07:15;;;;;;;7.80;7.20;;;29.60;88.40;;;;;;4999937;28;20030;-82
2021/06/19 07:09:41;;;;;;;7.57;6.88;;;29.40;88.90;;;;;;5000995;28;20446;-83
2021/06/19 07:12:07;;;;;;;8.82;7.28;;;29.10;87.60;;;;;;5020409;28;20506;-80
2021/06/19 07:14:33;;;;;;;7.13;6.43;;;28.90;89.20;;;;;;5019733;28;20029;-79
2021/06/19 07:16:58;;;;;;;14.77;9.27;;;28.40;88.70;;;;;;5017152;28;20057;-79
2021/06/19 07:19:24;;;;;;;8.48;7.47;;;28.30;88.80;;;;;;5018611;28;20136;-79
2021/06/19 07:21:50;;;;;;;7.57;6.88;;;28.00;90.20;;;;;;5015106;28;20025;-79
2021/06/19 07:24:15;;;;;;;8.15;7.22;;;27.90;91.00;;;;;;4981885;28;20033;-80
2021/06/19 07:26:41;;;;;;;7.88;7.15;;;27.90;91.70;;;;;;4977389;28;20034;-81
2021/06/19 07:29:07;;;;;;;7.60;7.00;;;27.80;90.40;;;;;;4999624;28;20149;-82
2021/06/19 07:31:33;;;;;;;7.97;7.28;;;27.70;90.80;;;;;;4993432;28;20061;-79
2021/06/19 07:33:58;;;;;;;8.00;7.30;;;27.50;90.90;;;;;;5014998;28;20034;-79
2021/06/19 07:36:24;;;;;;;7.35;6.75;;;27.20;92.00;;;;;;5016963;28;20030;-80
2021/06/19 07:38:50;;;;;;;7.82;7.03;;;27.00;92.20;;;;;;4994070;28;20555;-85
2021/06/19 07:41:15;;;;;;;9.05;8.25;;;26.80;93.10;;;;;;4983828;28;20105;-80
2021/06/19 07:43:43;;;;;;;8.88;7.57;;;26.70;93.60;;;;;;4977550;28;20386;-80
2021/06/19 07:46:08;;;;;;;9.18;7.90;;;26.40;93.60;;;;;;5016129;28;20034;-79
2021/06/19 07:48:34;;;;;;;7.88;7.18;;;26.30;93.50;;;;;;5022721;28;20105;-79
2021/06/19 07:51:00;;;;;;;9.32;7.35;;;26.10;93.20;;;;;;5020592;28;20026;-79
2021/06/19 07:53:25;;;;;;;8.32;7.43;;;26.10;94.60;;;;;;5011874;28;20412;-79
2021/06/19 07:55:51;;;;;;;9.30;7.97;;;26.10;95.50;;;;;;5014214;28;20033;-79
2021/06/19 07:58:17;;;;;;;9.18;7.38;;;26.00;95.80;;;;;;5030258;28;20129;-81
2021/06/19 08:00:43;;;;;;;8.98;8.07;;;26.00;96.00;;;;;;4999564;28;20068;-79
2021/06/19 08:03:09;;;;;;;7.32;6.72;;;26.10;95.80;;;;;;4994614;28;20436;-79
2021/06/19 08:05:34;;;;;;;7.75;7.00;;;26.10;97.20;;;;;;4994078;28;20037;-80
2021/06/19 08:08:00;;;;;;;7.88;7.18;;;26.10;97.00;;;;;;5009630;28;20100;-79
2021/06/19 08:10:26;;;;;;;9.20;7.65;;;26.20;97.40;;;;;;5010638;28;20033;-85
2021/06/19 08:13:14;;;;;;;8.85;7.95;;;26.30;96.20;;;;;;4977398;28;20053;-83
2021/06/19 08:16:03;;;;;;;9.13;7.60;;;26.20;96.10;;;;;;5011859;28;20634;-79
2021/06/19 08:18:28;;;;;;;8.90;8.00;;;25.90;95.30;;;;;;5013800;28;20404;-80
2021/06/19 08:20:54;;;;;;;9.02;7.80;;;25.90;96.30;;;;;;4996874;28;20032;-82
2021/06/19 08:23:20;;;;;;;9.80;7.50;;;25.80;97.20;;;;;;4977626;28;20517;-80
2021/06/19 08:25:45;;;;;;;7.57;6.78;;;25.80;97.40;;;;;;4995100;28;20050;-79
2021/06/19 08:28:11;;;;;;;8.15;7.05;;;25.90;98.00;;;;;;5002568;28;20516;-81
2021/06/19 08:30:37;;;;;;;8.60;7.80;;;26.00;98.00;;;;;;4979827;28;20117;-81
2021/06/19 08:33:03;;;;;;;8.90;8.05;;;26.10;98.20;;;;;;5014498;28;20038;-82
2021/06/19 08:35:28;;;;;;;10.82;7.60;;;26.30;98.20;;;;;;4997364;28;20121;-82
2021/06/19 08:37:54;;;;;;;8.45;7.57;;;26.50;97.60;;;;;;4997362;28;20145;-80
2021/06/19 08:40:20;;;;;;;9.02;6.93;;;26.60;96.10;;;;;;5014842;28;20037;-80
2021/06/19 08:42:45;;;;;;;8.98;7.38;;;26.70;95.40;;;;;;4995616;28;20473;-82
2021/06/19 08:45:12;;;;;;;7.22;6.53;;;26.90;95.90;;;;;;5000003;28;20080;-80
2021/06/19 08:47:39;;;;;;;8.57;7.30;;;26.90;95.90;;;;;;5014202;28;20392;-85
2021/06/19 08:50:09;;;;;;;9.75;7.53;;;27.10;96.10;;;;;;4980900;28;20022;-79
2021/06/19 08:52:37;;;;;;;10.48;7.07;;;27.30;94.00;;;;;;5012010;28;20117;-81
2021/06/19 08:55:11;;;;;;;8.88;6.57;;;27.40;93.90;;;;;;4979619;28;20061;-81
2021/06/19 08:57:37;;;;;;;8.33;7.60;;;27.70;93.90;;;;;;4996730;28;20029;-79
2021/06/19 09:00:05;;;;;;;10.75;7.70;;;27.90;93.70;;;;;;5020145;28;20021;-80
2021/06/19 09:02:31;;;;;;;9.00;7.80;;;28.30;94.20;;;;;;4995922;28;20470;-82
2021/06/19 09:05:04;;;;;;;9.40;7.95;;;28.60;92.30;;;;;;4996376;28;20064;-82
2021/06/19 09:07:42;;;;;;;12.32;7.57;;;28.90;92.90;;;;;;4995566;28;20033;-82
2021/06/19 09:10:34;;;;;;;8.45;7.50;;;29.00;90.70;;;;;;4979210;28;20034;-81
2021/06/19 09:13:02;;;;;;;9.10;8.10;;;29.20;91.70;;;;;;4995361;28;20026;-81
2021/06/19 09:15:55;;;;;;;8.05;7.35;;;29.20;90.70;;;;;;5012959;28;20027;-83
2021/06/19 09:19:06;;;;;;;8.90;7.18;;;29.40;90.70;;;;;;4994593;28;20095;-83
2021/06/19 09:21:35;;;;;;;7.75;7.05;;;29.60;91.10;;;;;;4977224;28;20460;-82
2021/06/19 09:24:01;;;;;;;8.45;7.65;;;29.70;90.50;;;;;;4978630;28;20043;-82
2021/06/19 09:26:31;;;;;;;9.15;8.20;;;29.70;90.30;;;;;;4981098;28;20021;-83
2021/06/19 09:29:15;;;;;;;10.80;8.00;;;29.70;86.70;;;;;;4994341;28;20072;-82
2021/06/19 09:31:49;;;;;;;8.48;7.60;;;29.70;87.70;;;;;;5010501;28;20037;-81
2021/06/19 09:34:21;;;;;;;9.20;8.30;;;29.70;87.70;;;;;;4969203;28;20038;-84
2021/06/19 09:36:49;;;;;;;9.10;8.20;;;29.70;86.00;;;;;;4998838;28;20037;-81
2021/06/19 09:39:17;;;;;;;8.35;7.63;;;29.60;85.80;;;;;;5004729;28;20030;-80
2021/06/19 09:41:54;;;;;;;9.15;8.15;;;29.60;85.00;;;;;;5007343;28;20053;-80
2021/06/19 09:44:37;;;;;;;10.73;8.35;;;29.50;84.90;;;;;;4993032;28;20051;-83
2021/06/19 09:47:04;;;;;;;9.70;8.13;;;29.50;84.00;;;;;;5001495;28;20048;-81
2021/06/19 09:49:39;;;;;;;9.80;8.23;;;29.60;83.90;;;;;;4991207;28;20021;-81
2021/06/19 09:52:05;;;;;;;10.35;9.20;;;29.50;85.60;;;;;;5005975;28;20034;-80
2021/06/19 09:54:39;;;;;;;9.57;8.57;;;29.60;86.50;;;;;;5009241;28;20034;-83
2021/06/19 09:57:07;;;;;;;11.53;10.33;;;29.60;85.60;;;;;;5005215;28;20033;-82
2021/06/19 09:59:35;;;;;;;10.68;9.63;;;29.60;86.30;;;;;;4989697;28;20520;-81
2021/06/19 10:02:04;;;;;;;11.27;10.10;;;29.50;88.80;;;;;;4983971;28;20049;-80
2021/06/19 10:04:31;;;;;;;10.52;9.52;;;29.40;88.00;;;;;;5012300;28;20125;-81
2021/06/19 10:06:58;;;;;;;11.63;9.95;;;29.40;84.60;;;;;;5010859;28;20026;-80
2021/06/19 10:09:25;;;;;;;10.23;9.20;;;29.20;87.20;;;;;;5011565;28;20037;-80
2021/06/19 10:11:54;;;;;;;10.40;9.23;;;29.00;86.70;;;;;;5011330;28;20134;-80
2021/06/19 10:14:23;;;;;;;11.10;8.13;;;28.90;87.70;;;;;;4973723;28;20038;-80
2021/06/19 10:16:52;;;;;;;11.38;8.68;;;28.80;88.00;;;;;;5006175;28;20034;-80
2021/06/19 10:19:21;;;;;;;11.35;8.23;;;28.90;86.60;;;;;;5007933;28;20040;-80
2021/06/19 10:21:50;;;;;;;11.07;9.88;;;28.90;83.50;;;;;;5009422;28;20034;-81
2021/06/19 10:24:16;;;;;;;9.57;8.57;;;28.60;85.60;;;;;;4974989;28;20041;-81
2021/06/19 10:26:42;;;;;;;11.00;8.00;;;28.40;89.20;;;;;;4989509;28;20030;-81
2021/06/19 10:29:09;;;;;;;11.27;7.60;;;28.40;87.50;;;;;;5003719;28;20042;-80
2021/06/19 10:31:53;;;;;;;10.05;6.80;;;28.50;84.30;;;;;;5008364;28;20030;-80
2021/06/19 10:34:30;;;;;;;8.25;7.15;;;28.40;82.50;;;;;;5005402;28;20141;-80
2021/06/19 10:37:02;;;;;;;7.40;6.50;;;28.50;86.40;;;;;;4990077;28;20037;-81
2021/06/19 10:39:43;;;;;;;11.50;7.10;;;28.40;83.10;;;;;;5007571;28;20116;-81
2021/06/19 10:42:29;;;;;;;10.07;6.63;;;28.50;84.60;;;;;;4989554;28;20030;-81
2021/06/19 10:45:21;;;;;;;8.43;7.60;;;28.50;85.90;;;;;;5000210;28;20026;-80
2021/06/19 10:48:05;;;;;;;8.98;7.15;;;28.60;84.60;;;;;;5004841;28;20033;-80
2021/06/19 10:50:32;;;;;;;8.90;7.10;;;28.60;83.80;;;;;;4977740;28;20034;-80
2021/06/19 10:53:15;;;;;;;6.95;6.22;;;28.70;82.90;;;;;;5015436;28;20025;-80
2021/06/19 10:55:43;;;;;;;7.97;5.25;;;28.70;84.40;;;;;;4989426;28;20030;-80
2021/06/19 10:58:29;;;;;;;9.55;5.50;;;28.80;83.80;;;;;;4989559;28;20033;-82
2021/06/19 11:00:57;;;;;;;5.97;5.15;;;28.90;77.40;;;;;;4968847;28;20037;-81
2021/06/19 11:03:47;;;;;;;8.90;6.80;;;28.90;78.40;;;;;;4999308;28;20499;-80
2021/06/19 11:06:21;;;;;;;10.00;5.93;;;28.80;75.10;;;;;;4984456;28;20080;-82
2021/06/19 11:08:57;;;;;;;10.27;5.50;;;28.70;77.50;;;;;;4971026;28;20035;-80
2021/06/19 11:12:03;;;;;;;10.60;6.38;;;28.80;75.70;;;;;;4988421;28;20104;-81
2021/06/19 11:14:41;;;;;;;7.43;5.75;;;28.80;75.60;;;;;;4986226;28;20034;-83
2021/06/19 11:17:08;;;;;;;5.95;5.30;;;28.70;76.30;;;;;;4988249;28;20079;-81
2021/06/19 11:19:51;;;;;;;6.72;5.45;;;28.70;79.00;;;;;;4998024;28;20035;-81
2021/06/19 11:22:35;;;;;;;7.03;5.25;;;28.80;80.50;;;;;;4985414;28;20025;-80
2021/06/19 11:25:15;;;;;;;5.55;5.03;;;29.10;81.00;;;;;;4983717;28;20026;-80
2021/06/19 11:27:48;;;;;;;7.25;6.03;;;29.40;83.50;;;;;;5007512;28;20515;-81
2021/06/19 11:30:39;;;;;;;6.00;5.40;;;29.50;74.80;;;;;;5006180;28;20208;-81
2021/06/19 11:33:25;;;;;;;8.70;5.50;;;29.70;76.40;;;;;;5020250;28;20034;-80
2021/06/19 11:35:53;;;;;;;10.35;5.72;;;29.70;78.40;;;;;;5002996;28;20033;-80
2021/06/19 11:38:21;;;;;;;6.53;4.85;;;29.80;77.50;;;;;;5010352;28;20026;-81
2021/06/19 11:40:48;;;;;;;6.20;4.78;;;29.90;75.40;;;;;;5019676;28;20033;-80
2021/06/19 11:43:14;;;;;;;8.68;4.85;;;30.20;69.80;;;;;;5007511;28;20558;-81
2021/06/19 11:45:42;;;;;;;6.85;4.53;;;30.50;71.10;;;;;;4967547;28;20057;-81
2021/06/19 11:48:14;;;;;;;10.55;4.65;;;30.80;65.00;;;;;;4999758;28;20129;-81
2021/06/19 11:50:45;;;;;;;7.90;4.85;;;30.80;64.90;;;;;;5003492;28;20025;-80
2021/06/19 11:53:33;;;;;;;9.02;5.40;;;30.90;70.00;;;;;;4993433;28;20081;-82
2021/06/19 11:56:05;;;;;;;8.73;4.80;;;31.10;65.10;;;;;;5002689;28;20704;-82
2021/06/19 11:58:51;;;;;;;7.20;4.50;;;31.20;70.90;;;;;;4987178;28;20254;-80
2021/06/19 12:01:19;;;;;;;4.65;3.97;;;31.50;68.60;;;;;;4999472;28;20042;-81
2021/06/19 12:03:46;;;;;;;9.75;5.20;;;31.90;67.50;;;;;;5003874;28;20034;-81
2021/06/19 12:06:12;;;;;;;6.32;4.35;;;32.10;67.00;;;;;;4968927;28;20038;-81
2021/06/19 12:08:39;;;;;;;6.43;4.43;;;32.40;63.40;;;;;;5002287;28;20025;-81
2021/06/19 12:11:05;;;;;;;7.75;4.18;;;32.60;62.80;;;;;;4997748;28;20398;-82
2021/06/19 12:13:40;;;;;;;6.55;3.40;;;32.80;62.00;;;;;;4995434;28;20121;-81
2021/06/19 12:16:07;;;;;;;6.53;3.95;;;32.90;61.30;;;;;;5015033;28;20061;-81
2021/06/19 12:18:33;;;;;;;7.70;4.70;;;33.20;64.30;;;;;;4988403;28;20212;-82
2021/06/19 12:21:06;;;;;;;8.85;4.82;;;33.40;63.50;;;;;;4998901;28;20030;-82
2021/06/19 12:23:37;;;;;;;7.53;3.97;;;33.50;57.70;;;;;;5004119;28;20034;-80
2021/06/19 12:26:08;;;;;;;5.32;3.70;;;33.70;58.90;;;;;;5010459;28;20507;-81
2021/06/19 12:28:41;;;;;;;9.30;4.10;;;34.00;54.40;;;;;;4988231;28;20038;-83
2021/06/19 12:31:07;;;;;;;7.32;4.07;;;34.20;55.40;;;;;;4994624;28;20173;-81
2021/06/19 12:33:33;;;;;;;7.15;4.45;;;34.30;57.20;;;;;;4990435;28;20124;-80
2021/06/19 12:36:00;;;;;;;4.90;3.90;;;34.30;54.10;;;;;;4992812;28;20033;-81
2021/06/19 12:38:28;;;;;;;10.07;5.35;;;34.40;53.30;;;;;;4991840;28;20653;-80
2021/06/19 12:40:56;;;;;;;6.13;4.20;;;34.50;54.00;;;;;;5005564;28;20048;-80
2021/06/19 12:43:22;;;;;;;8.70;4.35;;;34.70;55.50;;;;;;4985888;28;20040;-79
2021/06/19 12:45:50;;;;;;;7.40;4.68;;;34.90;53.00;;;;;;5004649;28;20474;-81
2021/06/19 12:48:20;;;;;;;5.68;4.28;;;34.50;54.40;;;;;;5008271;28;20107;-80
2021/06/19 12:50:46;;;;;;;5.90;3.83;;;34.60;55.90;;;;;;4970480;28;20481;-80
2021/06/19 12:53:14;;;;;;;8.75;4.20;;;34.90;56.10;;;;;;5009872;28;20080;-80
2021/06/19 12:55:44;;;;;;;6.97;4.20;;;35.40;53.30;;;;;;5006028;28;20057;-78
2021/06/19 12:58:17;;;;;;;11.02;4.45;;;35.70;52.90;;;;;;5003211;28;20619;-79